Time;durP1;ratioP1;P1;durP2;ratioP2;P2;SDS_P1;SDS_P2;PMS_P1;PMS_P2;Temp;Humidity;BMP_temperature;BMP_pressure;BME280_temperature;BME280_humidity;BME280_pressure;Samples;Min_cycle;Max_cycle;Signal;HPM_P1;HPM_P2
2023/11/28 00:00:54;;;;;;;3.83;2.50;;;;;;;;;;2052681;28;1099659;-60
2023/11/28 00:01:54;;;;;;;2.58;1.77;;;;;;;;;;2091798;28;20032;-60
2023/11/28 00:02:56;;;;;;;2.97;1.50;;;;;;;;;;2091376;28;20024;-59
2023/11/28 00:03:56;;;;;;;2.90;2.00;;;;;;;;;;2091191;28;20052;-59
2023/11/28 00:04:57;;;;;;;3.00;1.63;;;;;;;;;;2090788;28;20544;-59
2023/11/28 00:05:58;;;;;;;3.20;2.10;;;;;;;;;;2090482;28;20497;-60
2023/11/28 00:06:59;;;;;;;2.47;1.52;;;;;;;;;;2091257;28;20021;-60
2023/11/28 00:08:00;;;;;;;2.50;1.50;;;;;;;;;;2091182;28;20048;-59
2023/11/28 00:09:02;;;;;;;2.63;1.60;;;;;;;;;;2091586;28;20037;-59
2023/11/28 00:10:05;;;;;;;3.10;1.95;;;;;;;;;;2091376;28;20047;-60
2023/11/28 00:11:06;;;;;;;3.38;2.28;;;;;;;;;;2091244;28;20029;-59
2023/11/28 00:12:07;;;;;;;2.28;1.40;;;;;;;;;;2091776;28;20036;-59
2023/11/28 00:13:07;;;;;;;1.05;0.85;;;;;;;;;;2091363;28;20166;-59
2023/11/28 00:14:08;;;;;;;3.40;1.88;;;;;;;;;;2091626;28;20065;-59
2023/11/28 00:15:10;;;;;;;3.10;1.60;;;;;;;;;;2091314;28;20079;-60
2023/11/28 00:16:11;;;;;;;2.55;1.80;;;;;;;;;;2091215;28;20408;-59
2023/11/28 00:17:12;;;;;;;2.38;1.58;;;;;;;;;;2091376;28;20033;-59
2023/11/28 00:18:13;;;;;;;1.80;1.30;;;;;;;;;;2091374;28;20045;-59
2023/11/28 00:19:13;;;;;;;2.80;1.80;;;;;;;;;;2091194;28;20061;-59
2023/11/28 00:20:14;;;;;;;2.65;1.70;;;;;;;;;;2091860;28;20041;-59
2023/11/28 00:21:15;;;;;;;1.90;1.40;;;;;;;;;;2091039;28;20045;-59
2023/11/28 00:22:16;;;;;;;2.22;1.70;;;;;;;;;;2091277;28;20029;-60
2023/11/28 00:23:16;;;;;;;2.80;2.00;;;;;;;;;;2091358;28;20401;-59
2023/11/28 00:24:17;;;;;;;1.33;1.00;;;;;;;;;;2090652;28;20033;-60
2023/11/28 00:25:18;;;;;;;2.33;1.60;;;;;;;;;;2091266;28;20036;-59
2023/11/28 00:26:19;;;;;;;1.92;1.38;;;;;;;;;;2091217;28;20119;-59
2023/11/28 00:27:29;;;;;;;2.30;1.30;;;;;;;;;;2091241;28;20044;-60
2023/11/28 00:28:30;;;;;;;2.35;1.60;;;;;;;;;;2090622;28;20037;-59
2023/11/28 00:29:31;;;;;;;2.80;1.70;;;;;;;;;;2081034;28;20037;-59
2023/11/28 00:30:32;;;;;;;3.20;1.60;;;;;;;;;;2090797;28;20029;-60
2023/11/28 00:31:33;;;;;;;2.63;1.50;;;;;;;;;;2090771;28;20472;-59
2023/11/28 00:32:33;;;;;;;2.53;1.40;;;;;;;;;;2090622;28;20033;-60
2023/11/28 00:33:35;;;;;;;3.60;2.00;;;;;;;;;;2090913;28;20041;-61
2023/11/28 00:34:36;;;;;;;3.05;1.95;;;;;;;;;;2091342;28;20037;-60
2023/11/28 00:35:40;;;;;;;2.55;1.67;;;;;;;;;;2091129;28;20481;-60
2023/11/28 00:36:40;;;;;;;2.25;1.38;;;;;;;;;;2091350;28;20380;-60
2023/11/28 00:37:42;;;;;;;2.50;1.90;;;;;;;;;;2089909;28;20120;-60
2023/11/28 00:38:43;;;;;;;2.35;1.52;;;;;;;;;;2090872;28;20047;-61
2023/11/28 00:39:44;;;;;;;3.33;1.70;;;;;;;;;;2090546;28;20041;-59
2023/11/28 00:40:45;;;;;;;1.90;1.40;;;;;;;;;;2091116;28;20033;-60
2023/11/28 00:41:46;;;;;;;2.03;1.48;;;;;;;;;;2091086;28;20055;-59
2023/11/28 00:42:47;;;;;;;2.22;1.45;;;;;;;;;;2090499;28;20044;-59
2023/11/28 00:43:48;;;;;;;1.88;1.27;;;;;;;;;;2090680;28;20531;-59
2023/11/28 00:44:48;;;;;;;2.20;1.23;;;;;;;;;;2082278;28;20044;-58
2023/11/28 00:45:49;;;;;;;1.58;0.95;;;;;;;;;;2081888;28;20052;-59
2023/11/28 00:46:50;;;;;;;2.53;1.63;;;;;;;;;;2090474;28;20045;-60
2023/11/28 00:47:51;;;;;;;2.92;1.60;;;;;;;;;;2090448;28;20118;-60
2023/11/28 00:48:52;;;;;;;2.22;1.45;;;;;;;;;;2090554;28;20041;-60
2023/11/28 00:49:52;;;;;;;2.35;1.40;;;;;;;;;;2091242;28;20496;-60
2023/11/28 00:50:53;;;;;;;2.13;1.17;;;;;;;;;;2091403;28;20032;-60
2023/11/28 00:51:54;;;;;;;2.25;1.50;;;;;;;;;;2090349;28;20040;-60
2023/11/28 00:52:56;;;;;;;2.15;1.35;;;;;;;;;;2090746;28;20036;-60
2023/11/28 00:53:57;;;;;;;1.83;1.17;;;;;;;;;;2091050;28;20469;-60
2023/11/28 00:54:57;;;;;;;2.45;1.42;;;;;;;;;;2091083;28;20029;-60
2023/11/28 00:55:58;;;;;;;2.13;1.33;;;;;;;;;;2090695;28;20043;-59
2023/11/28 00:57:00;;;;;;;3.08;1.60;;;;;;;;;;2082442;28;20038;-59
2023/11/28 00:58:01;;;;;;;2.17;1.58;;;;;;;;;;2090411;28;20047;-59
2023/11/28 00:59:02;;;;;;;2.92;1.63;;;;;;;;;;2090985;28;20499;-60
2023/11/28 01:00:03;;;;;;;2.80;1.83;;;;;;;;;;2091161;28;20045;-60
2023/11/28 01:01:04;;;;;;;2.67;1.48;;;;;;;;;;2092897;28;20037;-60
2023/11/28 01:02:05;;;;;;;1.95;1.27;;;;;;;;;;2090687;28;20497;-60
2023/11/28 01:03:06;;;;;;;2.63;1.50;;;;;;;;;;2090969;28;20040;-60
2023/11/28 01:04:07;;;;;;;2.55;1.35;;;;;;;;;;2090609;28;20037;-60
2023/11/28 01:05:11;;;;;;;2.67;1.30;;;;;;;;;;2090615;28;20059;-60
2023/11/28 01:06:12;;;;;;;1.88;1.40;;;;;;;;;;2090960;28;20041;-60
2023/11/28 01:07:13;;;;;;;3.35;1.95;;;;;;;;;;2090301;28;20393;-60
2023/11/28 01:08:13;;;;;;;1.90;1.35;;;;;;;;;;2082367;28;20049;-60
2023/11/28 01:09:14;;;;;;;2.53;1.60;;;;;;;;;;2098014;28;20455;-61
2023/11/28 01:10:15;;;;;;;2.13;1.10;;;;;;;;;;2106608;28;20044;-60
2023/11/28 01:11:16;;;;;;;3.38;1.65;;;;;;;;;;2090960;28;20061;-61
2023/11/28 01:12:17;;;;;;;1.50;0.95;;;;;;;;;;2090846;28;20064;-60
2023/11/28 01:13:19;;;;;;;2.35;1.50;;;;;;;;;;2090242;28;20067;-61
2023/11/28 01:14:20;;;;;;;1.92;1.30;;;;;;;;;;2090477;28;20029;-61
2023/11/28 01:15:21;;;;;;;1.58;1.10;;;;;;;;;;2089615;28;20045;-61
2023/11/28 01:16:21;;;;;;;2.33;1.55;;;;;;;;;;2089996;28;20045;-61
2023/11/28 01:17:22;;;;;;;2.30;1.65;;;;;;;;;;2090469;28;20483;-60
2023/11/28 01:18:23;;;;;;;1.85;1.38;;;;;;;;;;2090827;28;20120;-61
2023/11/28 01:19:24;;;;;;;1.98;1.20;;;;;;;;;;2090251;28;20040;-61
2023/11/28 01:20:25;;;;;;;3.38;1.60;;;;;;;;;;2082023;28;20041;-61
2023/11/28 01:21:25;;;;;;;1.35;0.70;;;;;;;;;;2090008;28;20037;-60
2023/11/28 01:22:26;;;;;;;1.55;1.05;;;;;;;;;;2090978;28;20041;-60
2023/11/28 01:23:27;;;;;;;2.15;1.25;;;;;;;;;;2090812;28;20041;-60
2023/11/28 01:24:28;;;;;;;2.28;1.35;;;;;;;;;;2090920;28;20040;-61
2023/11/28 01:25:29;;;;;;;3.05;1.30;;;;;;;;;;2090150;28;20416;-60
2023/11/28 01:26:29;;;;;;;2.13;1.40;;;;;;;;;;2090159;28;20036;-60
2023/11/28 01:27:30;;;;;;;2.60;1.70;;;;;;;;;;2090739;28;20053;-60
2023/11/28 01:28:31;;;;;;;1.17;0.70;;;;;;;;;;2090792;28;20044;-60
2023/11/28 01:29:33;;;;;;;1.30;1.10;;;;;;;;;;2089444;28;20048;-60
2023/11/28 01:30:33;;;;;;;1.73;1.10;;;;;;;;;;2090060;28;20475;-60
2023/11/28 01:31:34;;;;;;;1.17;0.98;;;;;;;;;;2090538;28;20064;-60
2023/11/28 01:32:35;;;;;;;1.20;0.90;;;;;;;;;;2090607;28;20112;-60
2023/11/28 01:33:37;;;;;;;1.15;0.82;;;;;;;;;;2090229;28;20041;-60
2023/11/28 01:34:38;;;;;;;2.00;1.35;;;;;;;;;;2089670;28;20424;-60
2023/11/28 01:35:39;;;;;;;0.82;0.57;;;;;;;;;;2090123;28;20044;-59
2023/11/28 01:36:40;;;;;;;1.85;1.30;;;;;;;;;;2089803;28;20044;-60
2023/11/28 01:37:40;;;;;;;1.83;1.30;;;;;;;;;;2090945;28;20029;-60
2023/11/28 01:38:41;;;;;;;1.88;1.35;;;;;;;;;;2090772;28;20033;-60
2023/11/28 01:39:43;;;;;;;2.15;1.50;;;;;;;;;;2090697;28;20425;-60
2023/11/28 01:40:47;;;;;;;2.13;1.27;;;;;;;;;;2089743;28;20416;-59
2023/11/28 01:41:48;;;;;;;2.22;1.63;;;;;;;;;;2098752;28;20512;-60
2023/11/28 01:42:49;;;;;;;1.50;0.82;;;;;;;;;;2106444;28;20110;-60
2023/11/28 01:43:49;;;;;;;2.35;1.40;;;;;;;;;;2090700;28;20053;-60
2023/11/28 01:44:50;;;;;;;2.05;1.15;;;;;;;;;;2090932;28;20041;-60
2023/11/28 01:45:51;;;;;;;1.75;1.35;;;;;;;;;;2089999;28;20028;-60
2023/11/28 01:46:52;;;;;;;1.90;1.27;;;;;;;;;;2090312;28;20485;-60
2023/11/28 01:47:53;;;;;;;2.17;0.80;;;;;;;;;;2081772;28;20103;-60
2023/11/28 01:48:54;;;;;;;2.00;0.80;;;;;;;;;;2089317;28;20040;-60
2023/11/28 01:49:54;;;;;;;2.70;1.75;;;;;;;;;;2090200;28;20552;-61
2023/11/28 01:50:55;;;;;;;1.67;1.10;;;;;;;;;;2082229;28;20030;-61
2023/11/28 01:51:56;;;;;;;1.15;0.93;;;;;;;;;;2089879;28;20029;-61
2023/11/28 01:52:56;;;;;;;1.95;1.20;;;;;;;;;;2090796;28;20101;-60
2023/11/28 01:53:59;;;;;;;3.35;1.48;;;;;;;;;;2090595;28;20041;-61
2023/11/28 01:55:02;;;;;;;2.05;1.17;;;;;;;;;;2090516;28;20425;-60
2023/11/28 01:56:03;;;;;;;0.77;0.65;;;;;;;;;;2090491;28;20112;-60
2023/11/28 01:57:05;;;;;;;2.47;1.00;;;;;;;;;;2089821;28;20037;-60
2023/11/28 01:58:05;;;;;;;1.33;0.82;;;;;;;;;;2081937;28;20044;-60
2023/11/28 01:59:09;;;;;;;1.48;0.98;;;;;;;;;;2089978;28;20099;-60
2023/11/28 02:00:10;;;;;;;2.03;1.10;;;;;;;;;;2090102;28;20501;-60
2023/11/28 02:01:14;;;;;;;1.63;1.10;;;;;;;;;;2089878;28;20513;-61
2023/11/28 02:02:14;;;;;;;1.25;0.95;;;;;;;;;;2081398;28;20048;-60
2023/11/28 02:03:15;;;;;;;3.25;1.00;;;;;;;;;;2081795;28;20037;-59
2023/11/28 02:04:16;;;;;;;1.35;0.70;;;;;;;;;;2090772;28;20037;-60
2023/11/28 02:05:18;;;;;;;1.50;1.05;;;;;;;;;;2090509;28;20182;-60
2023/11/28 02:06:19;;;;;;;2.20;1.23;;;;;;;;;;2089914;28;20048;-59
2023/11/28 02:07:20;;;;;;;1.20;1.02;;;;;;;;;;2089922;28;20033;-59
2023/11/28 02:08:22;;;;;;;1.20;0.93;;;;;;;;;;2089836;28;20045;-60
2023/11/28 02:09:23;;;;;;;1.65;1.05;;;;;;;;;;2081714;28;20038;-59
2023/11/28 02:10:24;;;;;;;2.15;1.30;;;;;;;;;;2090056;28;20366;-59
2023/11/28 02:11:25;;;;;;;1.80;1.27;;;;;;;;;;2090724;28;20082;-59
2023/11/28 02:12:26;;;;;;;1.10;0.70;;;;;;;;;;2090291;28;20492;-59
2023/11/28 02:13:26;;;;;;;1.70;1.10;;;;;;;;;;2090574;28;20094;-59
2023/11/28 02:14:27;;;;;;;1.40;1.10;;;;;;;;;;2090152;28;20385;-60
2023/11/28 02:15:44;;;;;;;1.77;1.30;;;;;;;;;;2089610;28;20049;-60
2023/11/28 02:16:45;;;;;;;1.10;0.70;;;;;;;;;;2092020;28;20047;-59
2023/11/28 02:17:45;;;;;;;1.70;1.10;;;;;;;;;;2089707;28;20079;-59
2023/11/28 02:18:46;;;;;;;1.73;1.02;;;;;;;;;;2090108;28;20044;-59
2023/11/28 02:19:50;;;;;;;2.08;1.30;;;;;;;;;;2089746;28;20412;-60
2023/11/28 02:20:51;;;;;;;1.33;0.75;;;;;;;;;;2081822;28;20029;-59
2023/11/28 02:21:53;;;;;;;1.85;1.17;;;;;;;;;;2081936;28;20048;-60
2023/11/28 02:22:53;;;;;;;2.83;0.90;;;;;;;;;;2089792;28;20044;-59
2023/11/28 02:23:54;;;;;;;1.42;1.15;;;;;;;;;;2090073;28;20037;-61
2023/11/28 02:24:56;;;;;;;1.58;1.00;;;;;;;;;;2081618;28;20056;-59
2023/11/28 02:25:57;;;;;;;1.50;0.90;;;;;;;;;;2089742;28;20028;-60
2023/11/28 02:26:58;;;;;;;1.42;0.95;;;;;;;;;;2090358;28;20052;-60
2023/11/28 02:27:58;;;;;;;2.08;1.02;;;;;;;;;;2090472;28;20029;-61
2023/11/28 02:28:59;;;;;;;1.77;1.05;;;;;;;;;;2088373;28;20075;-60
2023/11/28 02:30:00;;;;;;;1.10;0.90;;;;;;;;;;2089571;28;20399;-60
2023/11/28 02:31:01;;;;;;;1.50;0.90;;;;;;;;;;2090540;28;20044;-61
2023/11/28 02:32:01;;;;;;;0.80;0.60;;;;;;;;;;2090306;28;20033;-60
2023/11/28 02:33:02;;;;;;;0.93;0.70;;;;;;;;;;2090186;28;20036;-61
2023/11/28 02:34:03;;;;;;;0.82;0.60;;;;;;;;;;2089835;28;20040;-60
2023/11/28 02:35:04;;;;;;;1.40;0.95;;;;;;;;;;2089733;28;20033;-61
2023/11/28 02:36:05;;;;;;;1.40;1.00;;;;;;;;;;2090470;28;20075;-61
2023/11/28 02:37:06;;;;;;;1.67;1.10;;;;;;;;;;2090261;28;20029;-61
2023/11/28 02:38:06;;;;;;;1.20;0.80;;;;;;;;;;2089823;28;20118;-60
2023/11/28 02:39:07;;;;;;;1.02;0.75;;;;;;;;;;2089838;28;20029;-60
2023/11/28 02:40:08;;;;;;;2.13;1.30;;;;;;;;;;2090189;28;20033;-61
2023/11/28 02:41:09;;;;;;;2.53;1.50;;;;;;;;;;2089767;28;20033;-62
2023/11/28 02:42:10;;;;;;;0.75;0.63;;;;;;;;;;2089804;28;20436;-61
2023/11/28 02:43:10;;;;;;;1.55;0.93;;;;;;;;;;2090224;28;20052;-60
2023/11/28 02:44:11;;;;;;;1.45;1.00;;;;;;;;;;2090572;28;20029;-61
2023/11/28 02:45:12;;;;;;;1.45;1.05;;;;;;;;;;2090271;28;20045;-61
2023/11/28 02:46:13;;;;;;;1.90;1.40;;;;;;;;;;2090170;28;20033;-61
2023/11/28 02:47:14;;;;;;;1.98;1.20;;;;;;;;;;2089778;28;20041;-61
2023/11/28 02:48:15;;;;;;;1.08;0.60;;;;;;;;;;2089244;28;20041;-61
2023/11/28 02:49:15;;;;;;;0.65;0.52;;;;;;;;;;2090200;28;20040;-61
2023/11/28 02:50:16;;;;;;;1.45;0.75;;;;;;;;;;2089923;28;20116;-62
2023/11/28 02:51:19;;;;;;;1.42;1.10;;;;;;;;;;2090268;28;20044;-61
2023/11/28 02:52:20;;;;;;;2.13;1.45;;;;;;;;;;2090138;28;20040;-61
2023/11/28 02:53:21;;;;;;;1.27;0.95;;;;;;;;;;2089447;28;20048;-62
2023/11/28 02:54:22;;;;;;;1.75;1.15;;;;;;;;;;2089766;28;20468;-61
2023/11/28 02:55:22;;;;;;;0.88;0.70;;;;;;;;;;2090446;28;20029;-62
2023/11/28 02:56:23;;;;;;;1.50;1.00;;;;;;;;;;2089899;28;20405;-62
2023/11/28 02:57:24;;;;;;;2.53;0.88;;;;;;;;;;2089574;28;20029;-61
2023/11/28 02:58:24;;;;;;;1.33;1.00;;;;;;;;;;2089492;28;20036;-61
2023/11/28 02:59:26;;;;;;;1.45;1.05;;;;;;;;;;2089596;28;20029;-61
2023/11/28 03:00:26;;;;;;;3.65;1.50;;;;;;;;;;2089460;28;20044;-61
2023/11/28 03:01:27;;;;;;;1.70;1.02;;;;;;;;;;2089471;28;20048;-61
2023/11/28 03:02:29;;;;;;;3.60;1.48;;;;;;;;;;2089593;28;20413;-61
2023/11/28 03:03:29;;;;;;;1.92;1.50;;;;;;;;;;2081403;28;20033;-61
2023/11/28 03:04:30;;;;;;;1.60;1.30;;;;;;;;;;2089588;28;20056;-60
2023/11/28 03:05:31;;;;;;;2.85;1.10;;;;;;;;;;2089589;28;20036;-61
2023/11/28 03:06:32;;;;;;;1.60;1.10;;;;;;;;;;2089864;28;20069;-61
2023/11/28 03:07:32;;;;;;;1.95;1.30;;;;;;;;;;2090095;28;20044;-61
2023/11/28 03:08:33;;;;;;;3.58;1.42;;;;;;;;;;2089286;28;20037;-61
2023/11/28 03:09:34;;;;;;;1.15;0.60;;;;;;;;;;2089871;28;20041;-61
2023/11/28 03:10:35;;;;;;;2.28;1.70;;;;;;;;;;2090118;28;20029;-62
2023/11/28 03:11:36;;;;;;;2.88;1.77;;;;;;;;;;2090133;28;20037;-61
2023/11/28 03:12:37;;;;;;;2.53;1.88;;;;;;;;;;2089996;28;20389;-61
2023/11/28 03:13:38;;;;;;;2.22;1.50;;;;;;;;;;2089222;28;20102;-61
2023/11/28 03:14:38;;;;;;;2.13;1.42;;;;;;;;;;2089755;28;20385;-61
2023/11/28 03:15:39;;;;;;;1.75;1.23;;;;;;;;;;2089802;28;20041;-61
2023/11/28 03:16:40;;;;;;;2.83;2.08;;;;;;;;;;2073384;28;20042;-61
2023/11/28 03:17:41;;;;;;;3.83;1.80;;;;;;;;;;2080978;28;20052;-61
2023/11/28 03:18:41;;;;;;;2.17;1.67;;;;;;;;;;2089573;28;20044;-61
2023/11/28 03:19:42;;;;;;;1.65;0.90;;;;;;;;;;2089510;28;20033;-61
2023/11/28 03:20:43;;;;;;;3.40;1.55;;;;;;;;;;2090085;28;20497;-61
2023/11/28 03:21:44;;;;;;;4.15;2.35;;;;;;;;;;2090271;28;20036;-60
2023/11/28 03:22:45;;;;;;;2.15;1.60;;;;;;;;;;2090033;28;20025;-61
2023/11/28 03:23:46;;;;;;;1.92;1.42;;;;;;;;;;2090073;28;20029;-61
2023/11/28 03:24:47;;;;;;;2.50;1.67;;;;;;;;;;2090094;28;20370;-61
2023/11/28 03:25:48;;;;;;;2.95;2.13;;;;;;;;;;2090085;28;20461;-61
2023/11/28 03:26:49;;;;;;;2.92;1.90;;;;;;;;;;2090256;28;20032;-60
2023/11/28 03:27:49;;;;;;;2.92;2.03;;;;;;;;;;2090273;28;20029;-60
2023/11/28 03:28:50;;;;;;;3.13;2.08;;;;;;;;;;2088344;28;20487;-61
2023/11/28 03:29:51;;;;;;;2.53;2.10;;;;;;;;;;2081065;28;20037;-61
2023/11/28 03:30:51;;;;;;;3.25;2.05;;;;;;;;;;2089421;28;20029;-61
2023/11/28 03:31:52;;;;;;;3.40;2.35;;;;;;;;;;2090183;28;20025;-61
2023/11/28 03:32:53;;;;;;;3.22;2.20;;;;;;;;;;2089553;28;20037;-61
2023/11/28 03:33:54;;;;;;;2.83;2.22;;;;;;;;;;2089440;28;20385;-60
2023/11/28 03:34:54;;;;;;;4.53;2.50;;;;;;;;;;2089801;28;20036;-60
2023/11/28 03:35:55;;;;;;;5.07;3.13;;;;;;;;;;2089391;28;20040;-61
2023/11/28 03:36:57;;;;;;;3.88;3.08;;;;;;;;;;2081368;28;20038;-61
2023/11/28 03:37:58;;;;;;;3.38;2.53;;;;;;;;;;2081455;28;20029;-61
2023/11/28 03:38:59;;;;;;;3.95;2.85;;;;;;;;;;2089565;28;20025;-61
2023/11/28 03:40:00;;;;;;;5.30;3.17;;;;;;;;;;2089747;28;20083;-61
2023/11/28 03:41:00;;;;;;;3.95;2.67;;;;;;;;;;2090052;28;20381;-61
2023/11/28 03:42:01;;;;;;;3.88;2.70;;;;;;;;;;2090031;28;20477;-62
2023/11/28 03:43:02;;;;;;;2.97;2.00;;;;;;;;;;2090207;28;20036;-61
2023/11/28 03:44:02;;;;;;;3.80;2.30;;;;;;;;;;2089972;28;20049;-61
2023/11/28 03:45:04;;;;;;;3.88;2.22;;;;;;;;;;2089771;28;20077;-62
2023/11/28 03:46:05;;;;;;;5.00;2.67;;;;;;;;;;2089489;28;20033;-62
2023/11/28 03:47:05;;;;;;;1.85;1.60;;;;;;;;;;2089370;28;20037;-60
2023/11/28 03:48:06;;;;;;;2.80;1.98;;;;;;;;;;2089625;28;20037;-62
2023/11/28 03:49:07;;;;;;;3.08;1.60;;;;;;;;;;2089939;28;20040;-61
2023/11/28 03:50:08;;;;;;;2.65;1.92;;;;;;;;;;2090252;28;20035;-62
2023/11/28 03:51:09;;;;;;;2.85;2.00;;;;;;;;;;2090143;28;20036;-62
2023/11/28 03:52:10;;;;;;;3.50;2.60;;;;;;;;;;2089600;28;20044;-62
2023/11/28 03:53:10;;;;;;;2.67;1.95;;;;;;;;;;2089245;28;20033;-62
2023/11/28 03:54:11;;;;;;;3.22;2.05;;;;;;;;;;2090280;28;20052;-62
2023/11/28 03:55:12;;;;;;;1.75;1.08;;;;;;;;;;2090891;28;20036;-61
2023/11/28 03:56:14;;;;;;;2.95;2.38;;;;;;;;;;2091772;28;20047;-62
2023/11/28 03:57:16;;;;;;;3.08;2.47;;;;;;;;;;2091144;28;20048;-62
2023/11/28 03:58:17;;;;;;;3.03;2.40;;;;;;;;;;2090835;28;20036;-63
2023/11/28 03:59:18;;;;;;;2.83;2.25;;;;;;;;;;2090899;28;20041;-63
2023/11/28 04:00:19;;;;;;;3.28;2.25;;;;;;;;;;2090469;28;20040;-63
2023/11/28 04:01:19;;;;;;;2.65;1.77;;;;;;;;;;2090459;28;20073;-62
2023/11/28 04:02:20;;;;;;;1.80;1.35;;;;;;;;;;2090850;28;20033;-62
2023/11/28 04:03:21;;;;;;;3.40;2.20;;;;;;;;;;2090999;28;20051;-63
2023/11/28 04:04:22;;;;;;;1.08;0.70;;;;;;;;;;2082600;28;20041;-63
2023/11/28 04:05:23;;;;;;;2.65;1.60;;;;;;;;;;2091016;28;20515;-63
2023/11/28 04:06:24;;;;;;;3.33;2.22;;;;;;;;;;2090241;28;20044;-63
2023/11/28 04:07:25;;;;;;;3.47;2.80;;;;;;;;;;2082284;28;20053;-62
2023/11/28 04:08:26;;;;;;;3.08;2.08;;;;;;;;;;2082516;28;20048;-63
2023/11/28 04:09:26;;;;;;;3.83;2.25;;;;;;;;;;2074459;28;20057;-63
2023/11/28 04:10:27;;;;;;;3.00;1.95;;;;;;;;;;2082699;28;20025;-63
2023/11/28 04:11:28;;;;;;;2.78;1.92;;;;;;;;;;2090698;28;20041;-63
2023/11/28 04:12:29;;;;;;;2.65;1.67;;;;;;;;;;2090707;28;20041;-62
2023/11/28 04:13:29;;;;;;;2.95;1.65;;;;;;;;;;2090961;28;20044;-63
2023/11/28 04:14:30;;;;;;;2.63;1.92;;;;;;;;;;2082546;28;20048;-62
2023/11/28 04:15:33;;;;;;;2.55;1.85;;;;;;;;;;2090715;28;20075;-62
2023/11/28 04:16:34;;;;;;;4.03;2.83;;;;;;;;;;2090708;28;20044;-62
2023/11/28 04:17:35;;;;;;;3.42;1.85;;;;;;;;;;2090777;28;20526;-63
2023/11/28 04:18:35;;;;;;;4.68;2.65;;;;;;;;;;2091272;28;20370;-63
2023/11/28 04:19:36;;;;;;;4.75;2.80;;;;;;;;;;2091339;28;20040;-64
2023/11/28 04:20:37;;;;;;;2.72;2.35;;;;;;;;;;2090605;28;20032;-63
2023/11/28 04:21:38;;;;;;;4.18;2.92;;;;;;;;;;2090640;28;20112;-62
2023/11/28 04:22:38;;;;;;;5.38;2.72;;;;;;;;;;2090008;28;20048;-63
2023/11/28 04:23:40;;;;;;;3.45;2.50;;;;;;;;;;2090527;28;20048;-63
2023/11/28 04:24:42;;;;;;;1.98;1.42;;;;;;;;;;2090530;28;20424;-63
2023/11/28 04:25:44;;;;;;;2.70;1.85;;;;;;;;;;2082062;28;20044;-62
2023/11/28 04:26:45;;;;;;;3.20;2.30;;;;;;;;;;2082396;28;20048;-63
2023/11/28 04:27:46;;;;;;;2.63;1.90;;;;;;;;;;2082645;28;20064;-63
2023/11/28 04:28:51;;;;;;;1.77;1.08;;;;;;;;;;2090932;28;20041;-63
2023/11/28 04:29:52;;;;;;;5.43;2.58;;;;;;;;;;2098420;28;20400;-63
2023/11/28 04:30:53;;;;;;;4.65;3.05;;;;;;;;;;2098791;28;20040;-62
2023/11/28 04:31:54;;;;;;;3.22;1.80;;;;;;;;;;2090582;28;20037;-63
2023/11/28 04:32:55;;;;;;;2.65;1.55;;;;;;;;;;2082537;28;20045;-62
2023/11/28 04:33:56;;;;;;;2.47;1.85;;;;;;;;;;2090563;28;20040;-63
2023/11/28 04:34:57;;;;;;;3.30;2.53;;;;;;;;;;2090755;28;20400;-62
2023/11/28 04:35:58;;;;;;;3.05;2.25;;;;;;;;;;2098945;28;20040;-62
2023/11/28 04:36:59;;;;;;;2.97;1.98;;;;;;;;;;2098818;28;20033;-62
2023/11/28 04:38:00;;;;;;;3.35;2.58;;;;;;;;;;2090628;28;20037;-61
2023/11/28 04:39:01;;;;;;;3.67;2.00;;;;;;;;;;2090519;28;20025;-61
2023/11/28 04:40:05;;;;;;;4.85;2.45;;;;;;;;;;2082820;28;20037;-61
2023/11/28 04:41:06;;;;;;;4.97;3.45;;;;;;;;;;2082354;28;20025;-62
2023/11/28 04:42:08;;;;;;;3.03;1.83;;;;;;;;;;2090639;28;20028;-61
2023/11/28 04:43:09;;;;;;;3.83;2.90;;;;;;;;;;2090497;28;20036;-62
2023/11/28 04:44:09;;;;;;;3.00;2.15;;;;;;;;;;2090523;28;20044;-63
2023/11/28 04:45:11;;;;;;;4.63;2.60;;;;;;;;;;2090750;28;20377;-62
2023/11/28 04:46:12;;;;;;;3.60;2.40;;;;;;;;;;2090484;28;20516;-62
2023/11/28 04:47:12;;;;;;;4.00;2.65;;;;;;;;;;2090626;28;20033;-62
2023/11/28 04:48:14;;;;;;;2.25;1.45;;;;;;;;;;2090741;28;20036;-61
2023/11/28 04:49:15;;;;;;;2.63;1.50;;;;;;;;;;2082256;28;20044;-61
2023/11/28 04:50:16;;;;;;;3.80;2.83;;;;;;;;;;2082512;28;20037;-61
2023/11/28 04:51:16;;;;;;;4.65;2.17;;;;;;;;;;2090309;28;20504;-62
2023/11/28 04:52:17;;;;;;;4.00;1.73;;;;;;;;;;2082541;28;20033;-62
2023/11/28 04:53:18;;;;;;;3.85;2.75;;;;;;;;;;2090704;28;20033;-62
2023/11/28 04:54:18;;;;;;;3.83;2.80;;;;;;;;;;2082510;28;20041;-61
2023/11/28 04:55:19;;;;;;;2.72;1.85;;;;;;;;;;2090458;28;20040;-61
2023/11/28 04:56:20;;;;;;;2.85;2.03;;;;;;;;;;2090438;28;20033;-61
2023/11/28 04:57:21;;;;;;;3.95;2.40;;;;;;;;;;2082198;28;20036;-60
2023/11/28 04:58:23;;;;;;;2.50;1.60;;;;;;;;;;2082216;28;20041;-60
2023/11/28 04:59:24;;;;;;;2.08;1.38;;;;;;;;;;2082182;28;20502;-60
2023/11/28 05:00:24;;;;;;;4.70;2.67;;;;;;;;;;2090426;28;20032;-61
2023/11/28 05:01:25;;;;;;;2.53;1.67;;;;;;;;;;2090809;28;20520;-60
2023/11/28 05:02:26;;;;;;;2.53;1.67;;;;;;;;;;2091269;28;20500;-60
2023/11/28 05:03:26;;;;;;;2.05;1.67;;;;;;;;;;2091130;28;20036;-60
2023/11/28 05:04:27;;;;;;;1.30;0.90;;;;;;;;;;2090670;28;20044;-60
2023/11/28 05:05:28;;;;;;;2.20;1.60;;;;;;;;;;2089962;28;20029;-60
2023/11/28 05:06:31;;;;;;;1.50;1.23;;;;;;;;;;2090583;28;20481;-59
2023/11/28 05:07:32;;;;;;;2.92;1.80;;;;;;;;;;2090307;28;20041;-60
2023/11/28 05:08:33;;;;;;;1.63;1.33;;;;;;;;;;2082260;28;20367;-60
2023/11/28 05:09:33;;;;;;;2.20;1.70;;;;;;;;;;2090321;28;20041;-60
2023/11/28 05:10:34;;;;;;;2.78;1.80;;;;;;;;;;2090875;28;20072;-61
2023/11/28 05:11:35;;;;;;;2.72;1.83;;;;;;;;;;2090932;28;20144;-61
2023/11/28 05:12:36;;;;;;;3.50;1.77;;;;;;;;;;2090303;28;20400;-61
2023/11/28 05:13:36;;;;;;;1.95;1.35;;;;;;;;;;2090226;28;20044;-60
2023/11/28 05:14:38;;;;;;;1.60;1.23;;;;;;;;;;2090259;28;20033;-60
2023/11/28 05:15:39;;;;;;;2.30;1.33;;;;;;;;;;2082298;28;20049;-61
2023/11/28 05:16:40;;;;;;;1.58;1.05;;;;;;;;;;2082019;28;20509;-60
2023/11/28 05:17:41;;;;;;;3.92;2.10;;;;;;;;;;2082034;28;20041;-61
2023/11/28 05:18:42;;;;;;;1.88;1.02;;;;;;;;;;2081986;28;20544;-61
2023/11/28 05:19:43;;;;;;;2.50;1.67;;;;;;;;;;2082156;28;20489;-60
2023/11/28 05:20:44;;;;;;;2.90;1.80;;;;;;;;;;2090496;28;20469;-60
2023/11/28 05:21:45;;;;;;;1.50;1.10;;;;;;;;;;2082000;28;20038;-60
2023/11/28 05:22:46;;;;;;;2.50;1.45;;;;;;;;;;2082244;28;20044;-60
2023/11/28 05:23:48;;;;;;;2.00;1.27;;;;;;;;;;2081948;28;20045;-61
2023/11/28 05:24:49;;;;;;;1.77;1.15;;;;;;;;;;2081969;28;20038;-60
2023/11/28 05:25:50;;;;;;;2.20;1.52;;;;;;;;;;2090212;28;20064;-60
2023/11/28 05:26:51;;;;;;;1.92;1.17;;;;;;;;;;2081554;28;20128;-60
2023/11/28 05:27:51;;;;;;;1.00;0.70;;;;;;;;;;2081923;28;20048;-61
2023/11/28 05:28:56;;;;;;;1.63;1.30;;;;;;;;;;2082194;28;20048;-61
2023/11/28 05:29:56;;;;;;;1.65;1.17;;;;;;;;;;2081141;28;20042;-60
2023/11/28 05:30:57;;;;;;;2.20;1.33;;;;;;;;;;2089609;28;20421;-60
2023/11/28 05:31:58;;;;;;;3.53;1.23;;;;;;;;;;2090275;28;20051;-60
2023/11/28 05:32:59;;;;;;;3.05;1.10;;;;;;;;;;2090439;28;20044;-61
2023/11/28 05:34:00;;;;;;;2.95;1.80;;;;;;;;;;2089991;28;20425;-62
2023/11/28 05:35:02;;;;;;;2.30;1.40;;;;;;;;;;2098609;28;20040;-60
2023/11/28 05:36:06;;;;;;;1.92;1.17;;;;;;;;;;2098157;28;20035;-61
2023/11/28 05:37:07;;;;;;;2.50;1.60;;;;;;;;;;2082021;28;20032;-61
2023/11/28 05:38:07;;;;;;;1.65;0.82;;;;;;;;;;2081871;28;20398;-62
2023/11/28 05:39:08;;;;;;;2.05;1.25;;;;;;;;;;2081738;28;20037;-60
2023/11/28 05:40:10;;;;;;;1.98;1.30;;;;;;;;;;2073517;28;20045;-60
2023/11/28 05:41:11;;;;;;;2.35;1.40;;;;;;;;;;2073473;28;20038;-62
2023/11/28 05:42:12;;;;;;;1.25;0.80;;;;;;;;;;2081859;28;20552;-61
2023/11/28 05:43:13;;;;;;;1.60;1.00;;;;;;;;;;2090165;28;20477;-61
2023/11/28 05:44:14;;;;;;;1.98;1.00;;;;;;;;;;2090299;28;20048;-61
2023/11/28 05:45:14;;;;;;;2.25;1.40;;;;;;;;;;2090001;28;20036;-58
2023/11/28 05:46:15;;;;;;;2.08;1.33;;;;;;;;;;2089961;28;20516;-59
2023/11/28 05:47:16;;;;;;;2.13;1.30;;;;;;;;;;2090051;28;20112;-59
2023/11/28 05:48:17;;;;;;;3.55;1.13;;;;;;;;;;2089749;28;20048;-60
2023/11/28 05:49:18;;;;;;;2.15;1.55;;;;;;;;;;2089996;28;20052;-60
2023/11/28 05:50:18;;;;;;;1.60;0.90;;;;;;;;;;2081678;28;20083;-59
2023/11/28 05:51:20;;;;;;;1.02;0.82;;;;;;;;;;2090276;28;20052;-59
2023/11/28 05:52:21;;;;;;;2.53;1.05;;;;;;;;;;2082051;28;20052;-59
2023/11/28 05:53:22;;;;;;;2.00;1.40;;;;;;;;;;2081465;28;20513;-59
2023/11/28 05:54:22;;;;;;;3.53;1.75;;;;;;;;;;2081842;28;20037;-59
2023/11/28 05:55:23;;;;;;;1.95;1.50;;;;;;;;;;2090229;28;20033;-60
2023/11/28 05:56:24;;;;;;;2.10;1.20;;;;;;;;;;2089367;28;20043;-59
2023/11/28 05:57:26;;;;;;;3.75;1.30;;;;;;;;;;2089843;28;20053;-60
2023/11/28 05:58:26;;;;;;;2.08;1.58;;;;;;;;;;2089965;28;20107;-60
2023/11/28 05:59:27;;;;;;;2.08;1.30;;;;;;;;;;2090125;28;20458;-60
2023/11/28 06:00:28;;;;;;;2.30;1.67;;;;;;;;;;2081922;28;20508;-60
2023/11/28 06:01:29;;;;;;;0.95;0.73;;;;;;;;;;2081561;28;20050;-60
2023/11/28 06:02:30;;;;;;;3.90;1.52;;;;;;;;;;2081645;28;20037;-60
2023/11/28 06:03:31;;;;;;;1.58;1.05;;;;;;;;;;2089911;28;20036;-60
2023/11/28 06:04:34;;;;;;;1.95;1.25;;;;;;;;;;2089894;28;20041;-60
2023/11/28 06:05:37;;;;;;;1.13;0.55;;;;;;;;;;2089876;28;20485;-61
2023/11/28 06:06:41;;;;;;;1.17;0.80;;;;;;;;;;2082035;28;20037;-60